sensor_id;sensor_type;location;lat;lon;timestamp;pressure;altitude;pressure_sealevel;temperature;humidity
20160;BME280;50187;50.492;12.134;2022-10-18T00:00:05;98551.00;;;21.91;46.45
20160;BME280;50187;50.492;12.134;2022-10-18T00:02:55;98541.56;;;21.95;46.50
20160;BME280;50187;50.492;12.134;2022-10-18T00:05:40;98531.88;;;21.92;46.36
20160;BME280;50187;50.492;12.134;2022-10-18T00:08:25;98537.16;;;21.94;46.60
20160;BME280;50187;50.492;12.134;2022-10-18T00:11:11;98535.56;;;22.01;46.23
20160;BME280;50187;50.492;12.134;2022-10-18T00:13:56;98539.53;;;22.07;46.29
20160;BME280;50187;50.492;12.134;2022-10-18T00:16:41;98538.06;;;22.12;46.25
20160;BME280;50187;50.492;12.134;2022-10-18T00:19:26;98531.19;;;22.18;46.16
20160;BME280;50187;50.492;12.134;2022-10-18T00:22:13;98534.75;;;22.19;46.01
20160;BME280;50187;50.492;12.134;2022-10-18T00:24:58;98525.06;;;22.16;46.09
20160;BME280;50187;50.492;12.134;2022-10-18T00:27:44;98537.56;;;22.27;46.00
20160;BME280;50187;50.492;12.134;2022-10-18T00:30:30;98541.97;;;22.28;45.76
20160;BME280;50187;50.492;12.134;2022-10-18T00:33:15;98534.84;;;22.27;45.72
20160;BME280;50187;50.492;12.134;2022-10-18T00:36:00;98529.28;;;22.28;45.83
20160;BME280;50187;50.492;12.134;2022-10-18T00:38:46;98528.44;;;22.28;45.91
20160;BME280;50187;50.492;12.134;2022-10-18T00:41:33;98528.44;;;22.28;46.01
20160;BME280;50187;50.492;12.134;2022-10-18T00:47:12;98519.34;;;22.19;46.08
20160;BME280;50187;50.492;12.134;2022-10-18T00:50:01;98541.25;;;22.26;45.75
20160;BME280;50187;50.492;12.134;2022-10-18T00:52:51;98525.84;;;22.26;46.02
20160;BME280;50187;50.492;12.134;2022-10-18T00:55:37;98528.72;;;22.25;45.74
20160;BME280;50187;50.492;12.134;2022-10-18T00:58:23;98523.44;;;22.23;46.01
20160;BME280;50187;50.492;12.134;2022-10-18T01:01:08;98521.72;;;22.22;45.86
20160;BME280;50187;50.492;12.134;2022-10-18T01:03:54;98529.84;;;22.22;45.90
20160;BME280;50187;50.492;12.134;2022-10-18T01:06:54;98527.31;;;22.21;46.04
20160;BME280;50187;50.492;12.134;2022-10-18T01:10:02;98522.75;;;22.21;45.76
20160;BME280;50187;50.492;12.134;2022-10-18T01:22:35;98534.34;;;22.13;46.07
20160;BME280;50187;50.492;12.134;2022-10-18T01:28:37;98540.22;;;22.09;46.18
20160;BME280;50187;50.492;12.134;2022-10-18T01:31:34;98548.19;;;22.10;45.92
20160;BME280;50187;50.492;12.134;2022-10-18T01:34:25;98544.66;;;22.10;45.93
20160;BME280;50187;50.492;12.134;2022-10-18T01:37:15;98552.06;;;22.08;46.01
20160;BME280;50187;50.492;12.134;2022-10-18T01:40:03;98552.06;;;22.08;45.97
20160;BME280;50187;50.492;12.134;2022-10-18T01:42:50;98545.78;;;22.07;46.16
20160;BME280;50187;50.492;12.134;2022-10-18T01:45:37;98554.06;;;22.06;46.10
20160;BME280;50187;50.492;12.134;2022-10-18T01:48:22;98545.38;;;22.02;46.19
20160;BME280;50187;50.492;12.134;2022-10-18T01:51:08;98544.25;;;22.05;45.90
20160;BME280;50187;50.492;12.134;2022-10-18T01:53:53;98548.81;;;22.04;46.10
20160;BME280;50187;50.492;12.134;2022-10-18T01:56:50;98558.94;;;22.02;46.03
20160;BME280;50187;50.492;12.134;2022-10-18T02:02:53;98554.78;;;22.08;45.98
20160;BME280;50187;50.492;12.134;2022-10-18T02:08:51;98553.72;;;22.19;46.05
20160;BME280;50187;50.492;12.134;2022-10-18T02:11:39;98558.84;;;22.22;45.75
20160;BME280;50187;50.492;12.134;2022-10-18T02:14:25;98553.81;;;22.27;45.86
20160;BME280;50187;50.492;12.134;2022-10-18T02:17:12;98538.25;;;22.29;45.63
20160;BME280;50187;50.492;12.134;2022-10-18T02:20:00;98539.97;;;22.30;45.84
20160;BME280;50187;50.492;12.134;2022-10-18T02:22:48;98541.81;;;22.29;45.56
20160;BME280;50187;50.492;12.134;2022-10-18T02:25:34;98542.81;;;22.28;45.81
20160;BME280;50187;50.492;12.134;2022-10-18T02:28:20;98539.97;;;22.30;45.51
20160;BME280;50187;50.492;12.134;2022-10-18T02:31:30;98556.22;;;22.30;45.53
20160;BME280;50187;50.492;12.134;2022-10-18T02:34:31;98542.50;;;22.32;45.77
20160;BME280;50187;50.492;12.134;2022-10-18T02:37:19;98545.38;;;22.30;45.61
20160;BME280;50187;50.492;12.134;2022-10-18T02:40:06;98537.41;;;22.28;45.52
20160;BME280;50187;50.492;12.134;2022-10-18T02:42:54;98542.81;;;22.28;45.75
20160;BME280;50187;50.492;12.134;2022-10-18T02:45:39;98545.69;;;22.27;45.73
20160;BME280;50187;50.492;12.134;2022-10-18T02:48:25;98547.41;;;22.28;45.72
20160;BME280;50187;50.492;12.134;2022-10-18T02:51:10;98534.28;;;22.23;45.71
20160;BME280;50187;50.492;12.134;2022-10-18T02:53:55;98533.28;;;22.24;45.85
20160;BME280;50187;50.492;12.134;2022-10-18T02:56:40;98545.13;;;22.23;45.63
20160;BME280;50187;50.492;12.134;2022-10-18T02:59:25;98548.00;;;22.22;45.70
20160;BME280;50187;50.492;12.134;2022-10-18T03:02:10;98542.72;;;22.20;45.77
20160;BME280;50187;50.492;12.134;2022-10-18T03:04:55;98549.00;;;22.21;45.62
20160;BME280;50187;50.492;12.134;2022-10-18T03:07:40;98539.19;;;22.20;45.63
20160;BME280;50187;50.492;12.134;2022-10-18T03:10:25;98542.88;;;22.19;45.90
20160;BME280;50187;50.492;12.134;2022-10-18T03:13:10;98535.06;;;22.16;45.76
20160;BME280;50187;50.492;12.134;2022-10-18T03:15:55;98530.47;;;22.16;45.88
20160;BME280;50187;50.492;12.134;2022-10-18T03:18:40;98531.47;;;22.15;45.75
20160;BME280;50187;50.492;12.134;2022-10-18T03:21:25;98528.09;;;22.13;45.98
20160;BME280;50187;50.492;12.134;2022-10-18T03:24:10;98520.94;;;22.12;45.92
20160;BME280;50187;50.492;12.134;2022-10-18T03:26:55;98525.69;;;22.10;45.87
20160;BME280;50187;50.492;12.134;2022-10-18T03:29:41;98524.66;;;22.11;45.80
20160;BME280;50187;50.492;12.134;2022-10-18T03:32:26;98530.22;;;22.09;45.84
20160;BME280;50187;50.492;12.134;2022-10-18T03:35:10;98532.09;;;22.09;45.75
20160;BME280;50187;50.492;12.134;2022-10-18T03:37:55;98533.09;;;22.08;46.03
20160;BME280;50187;50.492;12.134;2022-10-18T03:40:40;98531.53;;;22.05;45.83
20160;BME280;50187;50.492;12.134;2022-10-18T03:43:25;98526.41;;;22.02;45.88
20160;BME280;50187;50.492;12.134;2022-10-18T03:46:11;98540.91;;;22.11;46.00
20160;BME280;50187;50.492;12.134;2022-10-18T03:48:55;98521.81;;;22.12;45.79
20160;BME280;50187;50.492;12.134;2022-10-18T03:51:40;98502.38;;;22.17;45.79
20160;BME280;50187;50.492;12.134;2022-10-18T03:54:25;98480.38;;;22.20;45.64
20160;BME280;50187;50.492;12.134;2022-10-18T03:57:10;98484.50;;;22.24;45.62
20160;BME280;50187;50.492;12.134;2022-10-18T03:59:55;98493.19;;;22.28;45.73
20160;BME280;50187;50.492;12.134;2022-10-18T04:02:40;98498.47;;;22.29;45.41
20160;BME280;50187;50.492;12.134;2022-10-18T04:05:26;98491.16;;;22.30;45.54
20160;BME280;50187;50.492;12.134;2022-10-18T04:08:14;98480.31;;;22.30;45.60
20160;BME280;50187;50.492;12.134;2022-10-18T04:11:04;98474.91;;;22.30;45.50
20160;BME280;50187;50.492;12.134;2022-10-18T04:13:49;98475.75;;;22.30;45.51
20160;BME280;50187;50.492;12.134;2022-10-18T04:16:34;98489.28;;;22.30;45.44
20160;BME280;50187;50.492;12.134;2022-10-18T04:19:20;98502.16;;;22.28;45.56
20160;BME280;50187;50.492;12.134;2022-10-18T04:22:05;98489.63;;;22.27;45.69
20160;BME280;50187;50.492;12.134;2022-10-18T04:24:50;98493.19;;;22.28;45.69
20160;BME280;50187;50.492;12.134;2022-10-18T04:27:36;98492.63;;;22.24;45.58
20160;BME280;50187;50.492;12.134;2022-10-18T04:30:21;98500.59;;;22.26;45.68
20160;BME280;50187;50.492;12.134;2022-10-18T04:33:07;98503.16;;;22.27;45.66
20160;BME280;50187;50.492;12.134;2022-10-18T04:35:52;98502.47;;;22.25;45.47
20160;BME280;50187;50.492;12.134;2022-10-18T04:38:37;98494.63;;;22.22;45.46
20160;BME280;50187;50.492;12.134;2022-10-18T04:41:22;98493.78;;;22.22;45.70
20160;BME280;50187;50.492;12.134;2022-10-18T04:44:07;98492.94;;;22.21;45.79
20160;BME280;50187;50.492;12.134;2022-10-18T04:46:52;98485.41;;;22.15;45.82
20160;BME280;50187;50.492;12.134;2022-10-18T04:49:37;98494.94;;;22.19;45.59
20160;BME280;50187;50.492;12.134;2022-10-18T04:52:22;98496.66;;;22.20;45.69
20160;BME280;50187;50.492;12.134;2022-10-18T04:55:07;98488.28;;;22.13;45.57
20160;BME280;50187;50.492;12.134;2022-10-18T04:57:52;98482.84;;;22.13;45.49
20160;BME280;50187;50.492;12.134;2022-10-18T05:00:38;98487.44;;;22.13;45.84
20160;BME280;50187;50.492;12.134;2022-10-18T05:03:23;98487.59;;;22.11;45.88
20160;BME280;50187;50.492;12.134;2022-10-18T05:06:09;98491.84;;;22.14;45.88
20160;BME280;50187;50.492;12.134;2022-10-18T05:08:54;98483.78;;;22.22;45.73
20160;BME280;50187;50.492;12.134;2022-10-18T05:11:39;98485.19;;;22.26;45.64
20160;BME280;50187;50.492;12.134;2022-10-18T05:14:24;98477.63;;;22.30;45.53
20160;BME280;50187;50.492;12.134;2022-10-18T05:17:09;98472.63;;;22.35;45.51
20160;BME280;50187;50.492;12.134;2022-10-18T05:19:55;98474.69;;;22.41;45.32
20160;BME280;50187;50.492;12.134;2022-10-18T05:22:39;98467.81;;;22.47;45.24
20160;BME280;50187;50.492;12.134;2022-10-18T05:25:25;98457.34;;;22.52;45.31
20160;BME280;50187;50.492;12.134;2022-10-18T05:28:10;98457.03;;;22.55;45.17
20160;BME280;50187;50.492;12.134;2022-10-18T05:31:15;98448.19;;;22.53;45.23
20160;BME280;50187;50.492;12.134;2022-10-18T05:34:00;98462.84;;;22.60;45.11
20160;BME280;50187;50.492;12.134;2022-10-18T05:36:45;98463.84;;;22.59;45.20
20160;BME280;50187;50.492;12.134;2022-10-18T05:39:33;98457.56;;;22.59;45.16
20160;BME280;50187;50.492;12.134;2022-10-18T05:42:17;98463.84;;;22.59;45.18
20160;BME280;50187;50.492;12.134;2022-10-18T05:45:02;98455.56;;;22.61;45.08
20160;BME280;50187;50.492;12.134;2022-10-18T05:47:47;98452.13;;;22.59;45.15
20160;BME280;50187;50.492;12.134;2022-10-18T05:50:32;98456.31;;;22.53;44.95
20160;BME280;50187;50.492;12.134;2022-10-18T05:53:24;98456.97;;;22.47;44.84
20160;BME280;50187;50.492;12.134;2022-10-18T05:56:20;98446.03;;;22.39;44.57
20160;BME280;50187;50.492;12.134;2022-10-18T05:59:06;98451.78;;;22.36;44.65
20160;BME280;50187;50.492;12.134;2022-10-18T06:01:55;98454.06;;;22.30;44.78
20160;BME280;50187;50.492;12.134;2022-10-18T06:04:40;98449.09;;;22.26;44.82
20160;BME280;50187;50.492;12.134;2022-10-18T06:07:25;98450.09;;;22.25;44.69
20160;BME280;50187;50.492;12.134;2022-10-18T06:10:11;98452.81;;;22.25;44.91
20160;BME280;50187;50.492;12.134;2022-10-18T06:12:56;98454.53;;;22.26;44.74
20160;BME280;50187;50.492;12.134;2022-10-18T06:15:41;98456.09;;;22.28;44.77
20160;BME280;50187;50.492;12.134;2022-10-18T06:18:25;98454.66;;;22.34;44.80
20160;BME280;50187;50.492;12.134;2022-10-18T06:21:11;98461.31;;;22.40;44.53
20160;BME280;50187;50.492;12.134;2022-10-18T06:23:57;98477.41;;;22.41;44.81
20160;BME280;50187;50.492;12.134;2022-10-18T06:26:43;98474.03;;;22.39;44.69
20160;BME280;50187;50.492;12.134;2022-10-18T06:29:28;98465.94;;;22.47;44.72
20160;BME280;50187;50.492;12.134;2022-10-18T06:32:13;98480.72;;;22.53;44.88
20160;BME280;50187;50.492;12.134;2022-10-18T06:34:57;98464.19;;;22.56;44.93
20160;BME280;50187;50.492;12.134;2022-10-18T06:37:43;98459.13;;;22.61;44.84
20160;BME280;50187;50.492;12.134;2022-10-18T06:40:27;98458.97;;;22.63;45.03
20160;BME280;50187;50.492;12.134;2022-10-18T06:43:15;98444.41;;;22.64;45.20
20160;BME280;50187;50.492;12.134;2022-10-18T06:46:06;98441.69;;;22.64;45.28
20160;BME280;50187;50.492;12.134;2022-10-18T06:48:52;98449.50;;;22.67;45.38
20160;BME280;50187;50.492;12.134;2022-10-18T06:51:37;98445.16;;;22.74;44.95
20160;BME280;50187;50.492;12.134;2022-10-18T06:54:22;98445.53;;;22.79;44.95
20160;BME280;50187;50.492;12.134;2022-10-18T06:57:07;98442.03;;;22.87;44.87
20160;BME280;50187;50.492;12.134;2022-10-18T06:59:53;98426.13;;;22.92;44.72
20160;BME280;50187;50.492;12.134;2022-10-18T07:02:38;98421.69;;;22.91;44.67
20160;BME280;50187;50.492;12.134;2022-10-18T07:05:24;98435.47;;;22.98;44.79
20160;BME280;50187;50.492;12.134;2022-10-18T07:08:10;98433.63;;;22.98;44.90
20160;BME280;50187;50.492;12.134;2022-10-18T07:10:55;98432.59;;;22.99;44.79
20160;BME280;50187;50.492;12.134;2022-10-18T07:13:41;98431.44;;;23.02;44.70
20160;BME280;50187;50.492;12.134;2022-10-18T07:16:26;98426.84;;;23.03;44.91
20160;BME280;50187;50.492;12.134;2022-10-18T07:19:11;98421.97;;;23.06;44.82
20160;BME280;50187;50.492;12.134;2022-10-18T07:21:56;98428.56;;;23.04;44.72
20160;BME280;50187;50.492;12.134;2022-10-18T07:24:41;98417.88;;;23.02;44.88
20160;BME280;50187;50.492;12.134;2022-10-18T07:27:26;98424.00;;;23.04;44.68
20160;BME280;50187;50.492;12.134;2022-10-18T07:30:10;98419.38;;;22.96;45.05
20160;BME280;50187;50.492;12.134;2022-10-18T07:32:56;98429.91;;;22.99;44.87
20160;BME280;50187;50.492;12.134;2022-10-18T07:35:41;98431.06;;;22.97;45.10
20160;BME280;50187;50.492;12.134;2022-10-18T07:38:25;98416.97;;;22.93;45.23
20160;BME280;50187;50.492;12.134;2022-10-18T07:41:12;98423.56;;;22.91;45.31
20160;BME280;50187;50.492;12.134;2022-10-18T07:43:57;98417.47;;;22.89;45.42
20160;BME280;50187;50.492;12.134;2022-10-18T07:46:43;98410.66;;;22.85;45.40
20160;BME280;50187;50.492;12.134;2022-10-18T07:49:28;98413.66;;;22.81;45.55
20160;BME280;50187;50.492;12.134;2022-10-18T07:52:13;98424.66;;;22.80;45.70
20160;BME280;50187;50.492;12.134;2022-10-18T07:54:58;98437.56;;;22.78;45.65
20160;BME280;50187;50.492;12.134;2022-10-18T07:57:42;98431.41;;;22.76;45.44
20160;BME280;50187;50.492;12.134;2022-10-18T08:00:28;98417.84;;;22.76;45.55
20160;BME280;50187;50.492;12.134;2022-10-18T08:03:13;98426.16;;;22.74;45.66
20160;BME280;50187;50.492;12.134;2022-10-18T08:05:58;98422.94;;;22.71;45.77
20160;BME280;50187;50.492;12.134;2022-10-18T08:08:44;98415.13;;;22.68;45.86
20160;BME280;50187;50.492;12.134;2022-10-18T08:11:29;98409.69;;;22.68;45.91
20160;BME280;50187;50.492;12.134;2022-10-18T08:14:14;98413.56;;;22.65;45.90
20160;BME280;50187;50.492;12.134;2022-10-18T08:16:59;98404.03;;;22.61;45.71
20160;BME280;50187;50.492;12.134;2022-10-18T08:19:44;98416.44;;;22.63;46.01
20160;BME280;50187;50.492;12.134;2022-10-18T08:22:50;98420.00;;;22.64;46.04
20160;BME280;50187;50.492;12.134;2022-10-18T08:25:35;98400.94;;;22.56;45.96
20160;BME280;50187;50.492;12.134;2022-10-18T08:28:25;98404.53;;;22.56;45.89
20160;BME280;50187;50.492;12.134;2022-10-18T08:31:12;98413.41;;;22.67;45.91
20160;BME280;50187;50.492;12.134;2022-10-18T08:33:58;98412.69;;;22.64;45.85
20160;BME280;50187;50.492;12.134;2022-10-18T08:36:43;98407.28;;;22.64;45.67
20160;BME280;50187;50.492;12.134;2022-10-18T08:39:28;98409.84;;;22.66;45.78
20160;BME280;50187;50.492;12.134;2022-10-18T08:45:14;98426.13;;;22.66;45.90
20160;BME280;50187;50.492;12.134;2022-10-18T08:48:24;98411.59;;;22.75;45.96
20160;BME280;50187;50.492;12.134;2022-10-18T08:51:41;98409.09;;;22.82;45.85
20160;BME280;50187;50.492;12.134;2022-10-18T08:54:51;98412.56;;;22.92;45.90
20160;BME280;50187;50.492;12.134;2022-10-18T08:57:39;98411.72;;;22.92;45.67
20160;BME280;50187;50.492;12.134;2022-10-18T09:00:27;98425.78;;;22.95;45.83
20160;BME280;50187;50.492;12.134;2022-10-18T09:06:57;98413.19;;;22.86;45.73
20160;BME280;50187;50.492;12.134;2022-10-18T09:10:29;98412.34;;;22.86;45.94
20160;BME280;50187;50.492;12.134;2022-10-18T09:16:38;98427.22;;;22.81;46.10
20160;BME280;50187;50.492;12.134;2022-10-18T09:31:40;98433.63;;;22.72;46.39
20160;BME280;50187;50.492;12.134;2022-10-18T09:34:52;98447.34;;;22.71;46.39
20160;BME280;50187;50.492;12.134;2022-10-18T09:37:39;98444.94;;;22.68;46.30
20160;BME280;50187;50.492;12.134;2022-10-18T09:40:28;98441.69;;;22.64;46.47
20160;BME280;50187;50.492;12.134;2022-10-18T09:43:26;98441.53;;;22.66;46.28
20160;BME280;50187;50.492;12.134;2022-10-18T09:46:17;98443.56;;;22.63;46.46
20160;BME280;50187;50.492;12.134;2022-10-18T09:49:10;98460.81;;;22.62;46.51
20160;BME280;50187;50.492;12.134;2022-10-18T09:52:03;98458.97;;;22.63;46.69
20160;BME280;50187;50.492;12.134;2022-10-18T09:54:55;98447.59;;;22.59;46.41
20160;BME280;50187;50.492;12.134;2022-10-18T09:57:49;98460.44;;;22.57;46.43
20160;BME280;50187;50.492;12.134;2022-10-18T10:00:47;98455.00;;;22.57;46.47
20160;BME280;50187;50.492;12.134;2022-10-18T10:03:33;98447.03;;;22.56;46.56
20160;BME280;50187;50.492;12.134;2022-10-18T10:06:28;98446.19;;;22.55;46.56
20160;BME280;50187;50.492;12.134;2022-10-18T10:09:15;98442.78;;;22.53;46.56
20160;BME280;50187;50.492;12.134;2022-10-18T10:12:01;98451.22;;;22.50;46.58
20160;BME280;50187;50.492;12.134;2022-10-18T10:14:47;98455.66;;;22.51;46.38
20160;BME280;50187;50.492;12.134;2022-10-18T10:17:32;98456.50;;;22.52;46.36
20160;BME280;50187;50.492;12.134;2022-10-18T10:20:21;98458.34;;;22.51;46.48
20160;BME280;50187;50.492;12.134;2022-10-18T10:23:23;98452.22;;;22.49;46.45
20160;BME280;50187;50.492;12.134;2022-10-18T10:26:22;98457.81;;;22.47;46.57
20160;BME280;50187;50.492;12.134;2022-10-18T10:32:44;98469.69;;;22.46;46.38
20160;BME280;50187;50.492;12.134;2022-10-18T10:35:38;98467.13;;;22.45;46.60
20160;BME280;50187;50.492;12.134;2022-10-18T10:38:38;98455.41;;;22.44;46.63
20160;BME280;50187;50.492;12.134;2022-10-18T10:41:23;98461.72;;;22.45;46.37
20160;BME280;50187;50.492;12.134;2022-10-18T10:44:25;98467.13;;;22.45;46.62
20160;BME280;50187;50.492;12.134;2022-10-18T10:47:27;98467.13;;;22.45;46.58
20160;BME280;50187;50.492;12.134;2022-10-18T10:50:24;98464.41;;;22.45;46.40
20160;BME280;50187;50.492;12.134;2022-10-18T10:56:57;98454.56;;;22.44;46.49
20160;BME280;50187;50.492;12.134;2022-10-18T10:59:43;98454.56;;;22.44;46.43
20160;BME280;50187;50.492;12.134;2022-10-18T11:02:33;98450.97;;;22.43;46.60
20160;BME280;50187;50.492;12.134;2022-10-18T11:05:25;98454.56;;;22.44;46.48
20160;BME280;50187;50.492;12.134;2022-10-18T11:08:14;98456.56;;;22.42;46.55
20160;BME280;50187;50.492;12.134;2022-10-18T11:11:22;98477.09;;;22.44;46.65
20160;BME280;50187;50.492;12.134;2022-10-18T11:14:24;98479.97;;;22.43;46.54
20160;BME280;50187;50.492;12.134;2022-10-18T11:17:35;98491.66;;;22.43;46.69
20160;BME280;50187;50.492;12.134;2022-10-18T11:20:41;98491.66;;;22.43;46.77
20160;BME280;50187;50.492;12.134;2022-10-18T11:23:31;98485.38;;;22.43;46.59
20160;BME280;50187;50.492;12.134;2022-10-18T11:35:34;98485.38;;;22.43;46.81
20160;BME280;50187;50.492;12.134;2022-10-18T11:42:03;98491.66;;;22.43;46.78
20160;BME280;50187;50.492;12.134;2022-10-18T11:48:04;98505.22;;;22.43;46.85
20160;BME280;50187;50.492;12.134;2022-10-18T11:51:01;98499.25;;;22.40;46.83
20160;BME280;50187;50.492;12.134;2022-10-18T11:54:23;98501.66;;;22.43;46.95
20160;BME280;50187;50.492;12.134;2022-10-18T12:00:36;98489.41;;;22.39;46.93
20160;BME280;50187;50.492;12.134;2022-10-18T12:03:50;98491.13;;;22.40;47.02
20160;BME280;50187;50.492;12.134;2022-10-18T12:06:41;98471.31;;;22.39;47.12
20160;BME280;50187;50.492;12.134;2022-10-18T12:09:36;98470.59;;;22.37;47.00
20160;BME280;50187;50.492;12.134;2022-10-18T12:12:29;98458.75;;;22.38;47.19
20160;BME280;50187;50.492;12.134;2022-10-18T12:15:22;98461.47;;;22.38;47.18
20160;BME280;50187;50.492;12.134;2022-10-18T12:18:13;98460.91;;;22.35;47.12
20160;BME280;50187;50.492;12.134;2022-10-18T12:20:59;98456.03;;;22.38;47.06
20160;BME280;50187;50.492;12.134;2022-10-18T12:24:05;98460.31;;;22.41;47.01
20160;BME280;50187;50.492;12.134;2022-10-18T12:26:57;98459.59;;;22.39;47.44
20160;BME280;50187;50.492;12.134;2022-10-18T12:29:56;98464.34;;;22.37;47.27
20160;BME280;50187;50.492;12.134;2022-10-18T12:32:44;98463.03;;;22.41;47.19
20160;BME280;50187;50.492;12.134;2022-10-18T12:39:16;98477.88;;;22.37;47.11
20160;BME280;50187;50.492;12.134;2022-10-18T12:42:28;98475.84;;;22.39;46.85
20160;BME280;50187;50.492;12.134;2022-10-18T12:45:28;98464.03;;;22.40;46.86
20160;BME280;50187;50.492;12.134;2022-10-18T12:48:27;98469.59;;;22.38;47.04
20160;BME280;50187;50.492;12.134;2022-10-18T12:51:22;98473.16;;;22.39;47.05
20160;BME280;50187;50.492;12.134;2022-10-18T12:54:10;98470.59;;;22.37;46.80
20160;BME280;50187;50.492;12.134;2022-10-18T12:56:58;98468.03;;;22.36;47.09
20160;BME280;50187;50.492;12.134;2022-10-18T12:59:44;98468.72;;;22.38;47.10
20160;BME280;50187;50.492;12.134;2022-10-18T13:02:30;98476.72;;;22.39;46.94
20160;BME280;50187;50.492;12.134;2022-10-18T13:08:40;98465.72;;;22.41;47.16
20160;BME280;50187;50.492;12.134;2022-10-18T13:11:31;98469.13;;;22.43;47.00
20160;BME280;50187;50.492;12.134;2022-10-18T13:14:35;98469.97;;;22.43;46.81
20160;BME280;50187;50.492;12.134;2022-10-18T13:20:41;98475.69;;;22.40;47.00
20160;BME280;50187;50.492;12.134;2022-10-18T13:26:57;98488.56;;;22.38;47.00
20160;BME280;50187;50.492;12.134;2022-10-18T13:39:18;98483.63;;;22.34;47.04
20160;BME280;50187;50.492;12.134;2022-10-18T13:51:34;98488.28;;;22.32;46.77
20160;BME280;50187;50.492;12.134;2022-10-18T13:57:59;98500.13;;;22.30;46.79
20160;BME280;50187;50.492;12.134;2022-10-18T14:01:39;98496.59;;;22.30;46.89
20160;BME280;50187;50.492;12.134;2022-10-18T14:07:21;98504.03;;;22.28;46.72
20160;BME280;50187;50.492;12.134;2022-10-18T14:10:19;98511.28;;;22.27;46.77
20160;BME280;50187;50.492;12.134;2022-10-18T14:13:42;98515.88;;;22.27;47.00
20160;BME280;50187;50.492;12.134;2022-10-18T14:19:45;98517.88;;;22.25;46.80
20160;BME280;50187;50.492;12.134;2022-10-18T14:22:47;98523.44;;;22.23;46.79
20160;BME280;50187;50.492;12.134;2022-10-18T14:25:35;98530.56;;;22.24;46.98
20160;BME280;50187;50.492;12.134;2022-10-18T14:28:22;98543.41;;;22.22;46.79
20160;BME280;50187;50.492;12.134;2022-10-18T14:31:26;98535.75;;;22.18;46.82
20160;BME280;50187;50.492;12.134;2022-10-18T14:34:14;98529.63;;;22.16;46.71
20160;BME280;50187;50.492;12.134;2022-10-18T14:37:00;98537.31;;;22.20;46.81
20160;BME280;50187;50.492;12.134;2022-10-18T14:39:45;98533.75;;;22.20;46.72
20160;BME280;50187;50.492;12.134;2022-10-18T14:42:30;98524.06;;;22.17;46.69
20160;BME280;50187;50.492;12.134;2022-10-18T14:45:18;98516.94;;;22.16;46.51
20160;BME280;50187;50.492;12.134;2022-10-18T14:48:13;98522.50;;;22.15;46.54
20160;BME280;50187;50.492;12.134;2022-10-18T14:51:00;98528.09;;;22.13;46.34
20160;BME280;50187;50.492;12.134;2022-10-18T14:53:47;98531.78;;;22.12;46.46
20160;BME280;50187;50.492;12.134;2022-10-18T14:56:38;98535.50;;;22.11;46.49
20160;BME280;50187;50.492;12.134;2022-10-18T14:59:26;98534.13;;;22.07;46.68
20160;BME280;50187;50.492;12.134;2022-10-18T15:02:18;98533.97;;;22.08;46.81
20160;BME280;50187;50.492;12.134;2022-10-18T15:05:06;98532.25;;;22.07;46.52
20160;BME280;50187;50.492;12.134;2022-10-18T15:07:52;98539.53;;;22.07;46.74
20160;BME280;50187;50.492;12.134;2022-10-18T15:10:39;98537.81;;;22.06;46.52
20160;BME280;50187;50.492;12.134;2022-10-18T15:13:24;98539.66;;;22.05;46.48
20160;BME280;50187;50.492;12.134;2022-10-18T15:16:17;98534.41;;;22.04;46.67
20160;BME280;50187;50.492;12.134;2022-10-18T15:22:03;98536.41;;;22.02;46.63
20160;BME280;50187;50.492;12.134;2022-10-18T15:28:00;98543.81;;;22.00;46.54
20160;BME280;50187;50.492;12.134;2022-10-18T15:30:45;98542.97;;;21.99;46.58
20160;BME280;50187;50.492;12.134;2022-10-18T15:33:31;98542.13;;;21.99;46.48
20160;BME280;50187;50.492;12.134;2022-10-18T15:36:28;98543.97;;;21.98;46.65
20160;BME280;50187;50.492;12.134;2022-10-18T15:39:21;98547.00;;;21.95;46.47
20160;BME280;50187;50.492;12.134;2022-10-18T15:42:36;98547.72;;;21.97;46.55
20160;BME280;50187;50.492;12.134;2022-10-18T15:50:59;98548.00;;;21.94;46.33
20160;BME280;50187;50.492;12.134;2022-10-18T15:56:35;98535.91;;;21.88;46.48
20160;BME280;50187;50.492;12.134;2022-10-18T15:59:25;98546.47;;;21.91;46.61
20160;BME280;50187;50.492;12.134;2022-10-18T16:02:14;98560.00;;;21.91;46.64
20160;BME280;50187;50.492;12.134;2022-10-18T16:05:03;98560.13;;;21.90;46.44
20160;BME280;50187;50.492;12.134;2022-10-18T16:07:52;98556.56;;;21.89;46.40
20160;BME280;50187;50.492;12.134;2022-10-18T16:10:38;98564.16;;;21.86;46.49
20160;BME280;50187;50.492;12.134;2022-10-18T16:13:24;98559.44;;;21.88;46.46
20160;BME280;50187;50.492;12.134;2022-10-18T16:16:16;98576.53;;;21.88;46.45
20160;BME280;50187;50.492;12.134;2022-10-18T16:19:02;98574.13;;;21.85;46.69
20160;BME280;50187;50.492;12.134;2022-10-18T16:21:47;98562.03;;;21.79;46.49
20160;BME280;50187;50.492;12.134;2022-10-18T16:24:32;98575.84;;;21.86;46.64
20160;BME280;50187;50.492;12.134;2022-10-18T16:27:17;98584.97;;;21.85;46.66
20160;BME280;50187;50.492;12.134;2022-10-18T16:30:13;98576.16;;;21.83;46.46
20160;BME280;50187;50.492;12.134;2022-10-18T16:32:58;98581.56;;;21.83;46.45
20160;BME280;50187;50.492;12.134;2022-10-18T16:35:43;98585.94;;;21.84;46.41
20160;BME280;50187;50.492;12.134;2022-10-18T16:38:33;98582.72;;;21.81;46.73
20160;BME280;50187;50.492;12.134;2022-10-18T16:41:19;98593.38;;;21.82;46.69
20160;BME280;50187;50.492;12.134;2022-10-18T16:44:04;98588.97;;;21.81;46.71
20160;BME280;50187;50.492;12.134;2022-10-18T16:46:49;98593.53;;;21.81;46.67
20160;BME280;50187;50.492;12.134;2022-10-18T16:49:39;98596.25;;;21.81;46.72
20160;BME280;50187;50.492;12.134;2022-10-18T16:52:25;98590.97;;;21.79;47.05